Time,TemperatureF,DewpointF,PressureIn,WindDirection,WindDirectionDegrees,WindSpeedMPH,WindSpeedGustMPH,Humidity,HourlyPrecipIn,Conditions,Clouds,dailyrainin,SoftwareType,DateUTC
2013-05-09 00:04:00,46.3,44.0,29.97,North,353,0.0,3.0,93,0.06,,,0.01,weatherlink.com 1.10,2013-05-09 06:04:00,
2013-05-09 00:19:00,46.3,44.0,29.97,North,11,0.0,1.0,93,0.04,,,0.01,weatherlink.com 1.10,2013-05-09 06:19:00,
2013-05-09 00:34:00,46.2,44.0,29.97,NNW,328,0.0,1.0,93,0.02,,,0.01,weatherlink.com 1.10,2013-05-09 06:34:00,
2013-05-09 00:49:00,46.2,44.0,29.97,NNW,332,0.0,1.0,93,0.01,,,0.01,weatherlink.com 1.10,2013-05-09 06:49:00,
2013-05-09 01:04:00,46.2,44.0,29.98,NNW,330,0.0,0.0,93,0.00,,,0.01,weatherlink.com 1.10,2013-05-09 07:04:00,
2013-05-09 01:19:00,46.2,44.0,29.97,NNW,330,0.0,0.0,93,0.00,,,0.01,weatherlink.com 1.10,2013-05-09 07:19:00,
2013-05-09 01:34:00,46.1,44.0,29.97,South,183,0.0,0.0,93,0.00,,,0.01,weatherlink.com 1.10,2013-05-09 07:34:00,
2013-05-09 01:49:00,46.1,44.0,29.97,SSW,203,0.0,2.0,93,0.00,,,0.01,weatherlink.com 1.10,2013-05-09 07:49:00,
2013-05-09 02:04:00,46.2,44.0,29.97,SSW,201,0.0,0.0,93,0.00,,,0.01,weatherlink.com 1.10,2013-05-09 08:04:00,
2013-05-09 02:19:00,46.4,45.0,29.97,SSW,194,0.0,1.0,93,0.00,,,0.01,weatherlink.com 1.10,2013-05-09 08:19:00,
2013-05-09 02:34:00,46.3,44.0,29.96,SSW,193,0.0,2.0,93,0.00,,,0.01,weatherlink.com 1.10,2013-05-09 08:34:00,
2013-05-09 02:49:00,46.3,44.0,29.97,SSW,200,1.0,2.0,93,0.00,,,0.01,weatherlink.com 1.10,2013-05-09 08:49:00,
2013-05-09 03:04:00,46.1,44.0,29.97,SW,224,1.0,4.0,92,0.00,,,0.01,weatherlink.com 1.10,2013-05-09 09:04:00,
2013-05-09 03:19:00,46.0,44.0,29.97,WSW,245,0.0,3.0,91,0.00,,,0.01,weatherlink.com 1.10,2013-05-09 09:19:00,
2013-05-09 03:34:00,45.7,43.0,29.97,SSW,195,0.0,2.0,91,0.00,,,0.01,weatherlink.com 1.10,2013-05-09 09:34:00,
2013-05-09 03:49:00,45.2,43.0,29.98,SW,217,0.0,4.0,91,0.00,,,0.01,weatherlink.com 1.10,2013-05-09 09:49:00,
2013-05-09 04:04:00,44.8,42.0,29.98,SW,221,0.0,3.0,90,0.00,,,0.01,weatherlink.com 1.10,2013-05-09 10:04:00,
2013-05-09 04:19:00,44.3,42.0,29.99,SSW,207,1.0,3.0,91,0.00,,,0.01,weatherlink.com 1.10,2013-05-09 10:19:00,
2013-05-09 04:34:00,44.1,41.0,29.99,SW,214,1.0,1.0,90,0.00,,,0.01,weatherlink.com 1.10,2013-05-09 10:34:00,
2013-05-09 04:49:00,43.9,41.0,30.00,SSW,201,0.0,2.0,90,0.00,,,0.01,weatherlink.com 1.10,2013-05-09 10:49:00,
2013-05-09 05:04:00,43.7,41.0,29.99,SSE,148,1.0,2.0,90,0.00,,,0.01,weatherlink.com 1.10,2013-05-09 11:04:00,
2013-05-09 05:19:00,43.5,41.0,29.99,SSE,153,0.0,1.0,91,0.00,,,0.01,weatherlink.com 1.10,2013-05-09 11:19:00,
2013-05-09 05:34:00,43.3,41.0,30.00,SSW,207,0.0,1.0,91,0.00,,,0.01,weatherlink.com 1.10,2013-05-09 11:34:00,
2013-05-09 05:49:00,43.4,41.0,30.00,SSW,207,0.0,1.0,90,0.00,,,0.01,weatherlink.com 1.10,2013-05-09 11:49:00,
2013-05-09 06:04:00,43.4,41.0,30.00,SW,222,0.0,1.0,91,0.00,,,0.01,weatherlink.com 1.10,2013-05-09 12:04:00,
2013-05-09 06:19:00,43.2,41.0,30.01,SW,222,0.0,1.0,91,0.00,,,0.01,weatherlink.com 1.10,2013-05-09 12:19:00,
2013-05-09 06:35:00,43.0,41.0,30.02,SW,222,0.0,0.0,92,0.00,,,0.01,weatherlink.com 1.10,2013-05-09 12:35:00,
2013-05-09 06:50:00,43.2,41.0,30.02,SW,222,0.0,0.0,92,0.00,,,0.01,weatherlink.com 1.10,2013-05-09 12:50:00,
2013-05-09 07:05:00,43.9,42.0,30.03,SSW,204,0.0,0.0,92,0.00,,,0.01,weatherlink.com 1.10,2013-05-09 13:05:00,
2013-05-09 07:20:00,44.8,43.0,30.03,SSW,205,0.0,1.0,92,0.00,,,0.01,weatherlink.com 1.10,2013-05-09 13:20:00,
2013-05-09 07:35:00,45.7,43.0,30.04,NW,319,0.0,2.0,90,0.00,,,0.01,weatherlink.com 1.10,2013-05-09 13:35:00,
2013-05-09 07:50:00,46.2,43.0,30.05,North,5,1.0,2.0,89,0.00,,,0.01,weatherlink.com 1.10,2013-05-09 13:50:00,
2013-05-09 08:05:00,46.9,44.0,30.05,North,4,2.0,4.0,89,0.00,,,0.01,weatherlink.com 1.10,2013-05-09 14:05:00,
2013-05-09 08:20:00,48.0,44.0,30.05,NNE,27,3.0,5.0,86,0.00,,,0.01,weatherlink.com 1.10,2013-05-09 14:20:00,
2013-05-09 08:35:00,48.3,43.0,30.06,NW,314,1.0,4.0,83,0.00,,,0.01,weatherlink.com 1.10,2013-05-09 14:35:00,
2013-05-09 08:50:00,48.7,43.0,30.06,NW,319,1.0,4.0,82,0.00,,,0.01,weatherlink.com 1.10,2013-05-09 14:50:00,
2013-05-09 09:05:00,49.6,44.0,30.06,North,4,1.0,4.0,80,0.00,,,0.01,weatherlink.com 1.10,2013-05-09 15:05:00,
2013-05-09 09:20:00,49.8,44.0,30.06,NW,322,1.0,5.0,80,0.00,,,0.01,weatherlink.com 1.10,2013-05-09 15:20:00,
2013-05-09 09:35:00,49.7,44.0,30.07,North,9,0.0,3.0,80,0.00,,,0.01,weatherlink.com 1.10,2013-05-09 15:35:00,
2013-05-09 09:50:00,50.0,45.0,30.07,NW,313,2.0,4.0,82,0.00,,,0.01,weatherlink.com 1.10,2013-05-09 15:50:00,
2013-05-09 10:05:00,50.8,45.0,30.07,NNW,339,1.0,1.0,79,0.00,,,0.01,weatherlink.com 1.10,2013-05-09 16:05:00,
2013-05-09 10:20:00,50.5,44.0,30.08,NNE,12,2.0,4.0,79,0.00,,,0.01,weatherlink.com 1.10,2013-05-09 16:20:00,
2013-05-09 10:35:00,51.6,45.0,30.07,North,356,0.0,3.0,77,0.00,,,0.01,weatherlink.com 1.10,2013-05-09 16:35:00,
2013-05-09 10:50:00,53.3,45.0,30.07,NNE,15,1.0,4.0,73,0.00,,,0.01,weatherlink.com 1.10,2013-05-09 16:50:00,
2013-05-09 11:05:00,53.8,45.0,30.07,NE,34,1.0,7.0,71,0.00,,,0.01,weatherlink.com 1.10,2013-05-09 17:05:00,
2013-05-09 11:20:00,53.6,44.0,30.07,WNW,299,1.0,5.0,71,0.00,,,0.01,weatherlink.com 1.10,2013-05-09 17:20:00,
2013-05-09 11:35:00,53.8,43.0,30.07,NE,35,3.0,4.0,68,0.00,,,0.01,weatherlink.com 1.10,2013-05-09 17:35:00,
2013-05-09 11:50:00,53.6,44.0,30.07,NE,40,0.0,3.0,70,0.00,,,0.01,weatherlink.com 1.10,2013-05-09 17:50:00,
2013-05-09 12:05:00,51.8,43.0,30.07,NNW,338,2.0,3.0,72,0.04,,,0.05,weatherlink.com 1.10,2013-05-09 18:05:00,
2013-05-09 12:20:00,50.4,43.0,30.06,NW,322,0.0,2.0,75,0.05,,,0.06,weatherlink.com 1.10,2013-05-09 18:20:00,
2013-05-09 12:35:00,51.7,44.0,30.05,North,352,0.0,1.0,74,0.05,,,0.06,weatherlink.com 1.10,2013-05-09 18:35:00,
2013-05-09 12:50:00,53.4,47.0,30.05,East,83,1.0,1.0,78,0.07,,,0.08,weatherlink.com 1.10,2013-05-09 18:50:00,
2013-05-09 13:05:00,55.4,46.0,30.05,North,360,0.0,3.0,72,0.02,,,0.08,weatherlink.com 1.10,2013-05-09 19:05:00,
2013-05-09 13:21:00,54.9,42.0,30.05,North,352,4.0,8.0,63,0.02,,,0.08,weatherlink.com 1.10,2013-05-09 19:21:00,
2013-05-09 13:36:00,54.0,43.0,30.05,NNW,338,2.0,5.0,67,0.02,,,0.08,weatherlink.com 1.10,2013-05-09 19:36:00,
2013-05-09 13:51:00,54.0,46.0,30.04,NE,43,2.0,5.0,75,0.01,,,0.09,weatherlink.com 1.10,2013-05-09 19:51:00,
2013-05-09 14:06:00,55.7,44.0,30.04,NW,317,3.0,4.0,66,0.01,,,0.09,weatherlink.com 1.10,2013-05-09 20:06:00,
2013-05-09 14:21:00,56.3,44.0,30.05,NW,323,6.0,6.0,63,0.01,,,0.09,weatherlink.com 1.10,2013-05-09 20:21:00,
2013-05-09 14:36:00,48.4,42.0,30.05,NNW,346,2.0,10.0,78,0.07,,,0.15,weatherlink.com 1.10,2013-05-09 20:36:00,
2013-05-09 14:51:00,48.3,43.0,30.05,NE,37,3.0,8.0,82,0.08,,,0.17,weatherlink.com 1.10,2013-05-09 20:51:00,
2013-05-09 15:06:00,49.2,43.0,30.06,NE,55,4.0,12.0,79,0.09,,,0.18,weatherlink.com 1.10,2013-05-09 21:06:00,
2013-05-09 15:21:00,49.8,44.0,30.07,NNE,27,5.0,9.0,80,0.10,,,0.19,weatherlink.com 1.10,2013-05-09 21:21:00,
2013-05-09 15:36:00,49.9,44.0,30.07,NW,304,2.0,8.0,81,0.05,,,0.20,weatherlink.com 1.10,2013-05-09 21:36:00,
2013-05-09 15:51:00,49.0,44.0,30.06,NNW,337,5.0,7.0,82,0.04,,,0.21,weatherlink.com 1.10,2013-05-09 21:51:00,
2013-05-09 16:06:00,49.8,44.0,30.06,North,352,0.0,5.0,80,0.03,,,0.21,weatherlink.com 1.10,2013-05-09 22:06:00,
2013-05-09 16:21:00,51.1,44.0,30.06,North,356,1.0,3.0,78,0.02,,,0.21,weatherlink.com 1.10,2013-05-09 22:21:00,
2013-05-09 16:36:00,52.4,44.0,30.07,NW,313,1.0,4.0,73,0.01,,,0.21,weatherlink.com 1.10,2013-05-09 22:36:00,
2013-05-09 16:51:00,54.0,43.0,30.06,NNE,19,0.0,3.0,67,0.00,,,0.21,weatherlink.com 1.10,2013-05-09 22:51:00,
2013-05-09 17:06:00,53.1,41.0,30.06,WNW,291,1.0,5.0,64,0.00,,,0.21,weatherlink.com 1.10,2013-05-09 23:06:00,
2013-05-09 17:21:00,53.4,41.0,30.06,SSE,155,2.0,7.0,63,0.00,,,0.21,weatherlink.com 1.10,2013-05-09 23:21:00,
2013-05-09 17:36:00,54.9,42.0,30.06,SW,231,3.0,5.0,62,0.00,,,0.21,weatherlink.com 1.10,2013-05-09 23:36:00,
2013-05-09 17:51:00,54.7,41.0,30.06,East,98,0.0,3.0,61,0.00,,,0.21,weatherlink.com 1.10,2013-05-09 23:51:00,
2013-05-09 18:06:00,54.9,40.0,30.05,NW,309,2.0,5.0,58,0.00,,,0.21,weatherlink.com 1.10,2013-05-10 00:06:00,
2013-05-09 18:21:00,55.1,39.0,30.05,NNW,344,0.0,4.0,56,0.00,,,0.21,weatherlink.com 1.10,2013-05-10 00:21:00,
2013-05-09 18:36:00,55.0,39.0,30.06,SW,225,0.0,2.0,55,0.00,,,0.21,weatherlink.com 1.10,2013-05-10 00:36:00,
2013-05-09 18:51:00,54.9,38.0,30.06,North,358,1.0,2.0,53,0.00,,,0.21,weatherlink.com 1.10,2013-05-10 00:51:00,
2013-05-09 19:06:00,54.0,38.0,30.06,SSW,210,0.0,2.0,56,0.00,,,0.21,weatherlink.com 1.10,2013-05-10 01:06:00,
2013-05-09 19:21:00,53.5,39.0,30.06,South,170,1.0,2.0,59,0.00,,,0.21,weatherlink.com 1.10,2013-05-10 01:21:00,
2013-05-09 19:36:00,52.6,41.0,30.06,SSE,160,3.0,3.0,64,0.00,,,0.21,weatherlink.com 1.10,2013-05-10 01:36:00,
2013-05-09 19:51:00,51.7,41.0,30.06,South,169,1.0,4.0,68,0.00,,,0.21,weatherlink.com 1.10,2013-05-10 01:51:00,
2013-05-09 20:06:00,50.9,41.0,30.07,South,169,1.0,1.0,70,0.00,,,0.21,weatherlink.com 1.10,2013-05-10 02:06:00,
2013-05-09 20:21:00,49.9,41.0,30.07,SW,221,0.0,3.0,72,0.00,,,0.21,weatherlink.com 1.10,2013-05-10 02:21:00,
2013-05-09 20:36:00,49.2,41.0,30.07,SSW,196,0.0,2.0,74,0.00,,,0.21,weatherlink.com 1.10,2013-05-10 02:36:00,
2013-05-09 20:51:00,48.5,41.0,30.07,SW,224,0.0,3.0,74,0.00,,,0.21,weatherlink.com 1.10,2013-05-10 02:51:00,
2013-05-09 21:06:00,47.9,40.0,30.08,South,185,1.0,3.0,73,0.00,,,0.21,weatherlink.com 1.10,2013-05-10 03:06:00,
2013-05-09 21:21:00,47.6,40.0,30.08,SW,221,0.0,3.0,74,0.00,,,0.21,weatherlink.com 1.10,2013-05-10 03:21:00,
2013-05-09 21:36:00,47.0,39.0,30.09,SW,219,0.0,2.0,74,0.00,,,0.21,weatherlink.com 1.10,2013-05-10 03:36:00,
2013-05-09 21:51:00,46.6,39.0,30.10,SSE,159,0.0,2.0,75,0.00,,,0.21,weatherlink.com 1.10,2013-05-10 03:51:00,
2013-05-09 22:06:00,46.2,39.0,30.10,South,191,0.0,1.0,76,0.00,,,0.21,weatherlink.com 1.10,2013-05-10 04:06:00,
2013-05-09 22:21:00,45.8,39.0,30.10,SW,222,0.0,1.0,76,0.00,,,0.21,weatherlink.com 1.10,2013-05-10 04:21:00,
2013-05-09 22:36:00,45.8,39.0,30.09,SW,215,0.0,3.0,76,0.00,,,0.21,weatherlink.com 1.10,2013-05-10 04:36:00,
2013-05-09 22:51:00,45.5,38.0,30.09,SW,228,0.0,2.0,76,0.00,,,0.21,weatherlink.com 1.10,2013-05-10 04:51:00,
2013-05-09 23:06:00,45.3,38.0,30.09,SSW,200,0.0,3.0,76,0.00,,,0.21,weatherlink.com 1.10,2013-05-10 05:06:00,
2013-05-09 23:21:00,45.0,38.0,30.09,SW,235,1.0,4.0,77,0.00,,,0.21,weatherlink.com 1.10,2013-05-10 05:21:00,
2013-05-09 23:36:00,44.8,38.0,30.09,South,177,0.0,3.0,77,0.00,,,0.21,weatherlink.com 1.10,2013-05-10 05:36:00,
2013-05-09 23:51:00,44.6,38.0,30.09,SSE,150,0.0,3.0,78,0.00,,,0.21,weatherlink.com 1.10,2013-05-10 05:51:00,